createdAt,value
2023-02-17T00:01:52.519Z,10.90
2023-02-17T00:04:18.776Z,12.23
2023-02-17T00:06:45.020Z,9.20
2023-02-17T00:09:11.227Z,10.13
2023-02-17T00:11:37.410Z,11.45
2023-02-17T00:14:03.681Z,10.55
2023-02-17T00:16:30.114Z,9.77
2023-02-17T00:18:57.428Z,12.98
2023-02-17T00:21:25.071Z,11.77
2023-02-17T00:23:51.533Z,9.45
2023-02-17T00:26:18.297Z,11.88
2023-02-17T00:28:45.124Z,10.70
2023-02-17T00:31:14.232Z,11.77
2023-02-17T00:33:40.767Z,9.82
2023-02-17T00:36:08.900Z,9.50
2023-02-17T00:38:35.117Z,9.55
2023-02-17T00:41:01.366Z,9.70
2023-02-17T00:43:27.600Z,12.32
2023-02-17T00:45:53.939Z,10.60
2023-02-17T00:48:20.171Z,8.80
2023-02-17T00:50:46.420Z,10.45
2023-02-17T00:53:12.634Z,9.02
2023-02-17T00:55:39.025Z,10.10
2023-02-17T00:58:05.244Z,10.32
2023-02-17T01:00:31.568Z,9.00
2023-02-17T01:02:57.754Z,10.45
2023-02-17T01:05:23.967Z,9.85
2023-02-17T01:07:50.230Z,8.68
2023-02-17T01:10:16.662Z,9.85
2023-02-17T01:12:42.857Z,9.68
2023-02-17T01:15:09.177Z,9.35
2023-02-17T01:17:35.367Z,8.73
2023-02-17T01:20:01.804Z,9.60
2023-02-17T01:22:28.060Z,9.05
2023-02-17T01:24:54.309Z,10.15
2023-02-17T01:27:20.600Z,8.60
2023-02-17T01:29:46.811Z,10.02
2023-02-17T01:32:13.151Z,9.88
2023-02-17T01:34:39.346Z,8.82
2023-02-17T01:37:05.644Z,9.77
2023-02-17T01:39:31.856Z,9.55
2023-02-17T01:41:58.081Z,8.95
2023-02-17T01:44:25.191Z,7.82
2023-02-17T01:46:52.692Z,10.00
2023-02-17T01:49:27.922Z,10.85
2023-02-17T01:52:01.213Z,8.90
2023-02-17T01:54:30.246Z,9.10
2023-02-17T01:56:57.308Z,12.10
2023-02-17T01:59:23.571Z,10.60
2023-02-17T02:01:52.694Z,9.95
2023-02-17T02:04:20.529Z,10.60
2023-02-17T02:06:47.040Z,9.40
2023-02-17T02:09:17.861Z,11.55
2023-02-17T02:11:44.105Z,9.70
2023-02-17T02:14:10.693Z,9.65
2023-02-17T02:16:42.693Z,12.98
2023-02-17T02:19:26.332Z,11.85
2023-02-17T02:22:04.580Z,10.68
2023-02-17T02:24:49.523Z,9.50
2023-02-17T02:27:39.475Z,9.82
2023-02-17T02:30:14.087Z,10.35
2023-02-17T02:32:46.917Z,9.68
2023-02-17T02:35:31.667Z,10.88
2023-02-17T02:38:06.962Z,9.73
2023-02-17T02:40:36.141Z,10.60
2023-02-17T02:43:02.974Z,10.93
2023-02-17T02:45:29.543Z,11.07
2023-02-17T02:47:56.112Z,12.50
2023-02-17T02:50:35.969Z,10.45
2023-02-17T02:53:08.149Z,10.00
2023-02-17T02:55:52.492Z,11.75
2023-02-17T02:59:01.697Z,11.00
2023-02-17T03:01:31.042Z,10.77
2023-02-17T03:04:08.703Z,10.00
2023-02-17T03:06:40.978Z,9.57
2023-02-17T03:09:12.712Z,10.68
2023-02-17T03:11:40.169Z,10.00
2023-02-17T03:14:10.869Z,12.98
2023-02-17T03:16:37.943Z,11.10
2023-02-17T03:19:04.790Z,11.00
2023-02-17T03:21:38.891Z,13.27
2023-02-17T03:24:05.693Z,9.82
2023-02-17T03:26:32.041Z,10.60
2023-02-17T03:28:58.255Z,10.77
2023-02-17T03:31:24.593Z,13.13
2023-02-17T03:33:50.880Z,12.75
2023-02-17T03:36:17.162Z,11.75
2023-02-17T03:38:43.346Z,11.57
2023-02-17T03:41:09.540Z,10.23
2023-02-17T03:43:35.774Z,11.45
2023-02-17T03:46:02.095Z,12.02
2023-02-17T03:48:28.383Z,11.55
2023-02-17T03:50:54.597Z,11.38
2023-02-17T03:53:20.861Z,12.60
2023-02-17T03:55:47.090Z,11.50
2023-02-17T03:58:13.360Z,11.15
2023-02-17T04:00:39.582Z,11.60
2023-02-17T04:03:06.655Z,10.27
2023-02-17T04:05:32.842Z,11.20
2023-02-17T04:07:59.042Z,9.75
2023-02-17T04:10:25.289Z,11.70
2023-02-17T04:12:51.483Z,9.57
2023-02-17T04:15:17.696Z,8.95
2023-02-17T04:17:43.957Z,10.63
2023-02-17T04:20:10.621Z,9.30
2023-02-17T04:22:36.885Z,9.43
2023-02-17T04:25:03.237Z,10.20
2023-02-17T04:27:29.424Z,11.43
2023-02-17T04:29:55.660Z,11.30
2023-02-17T04:32:21.883Z,9.48
2023-02-17T04:34:48.134Z,10.40
2023-02-17T04:37:14.346Z,9.32
2023-02-17T04:39:40.586Z,9.13
2023-02-17T04:42:06.768Z,12.23
2023-02-17T04:44:33.094Z,9.23
2023-02-17T04:46:59.281Z,10.77
2023-02-17T04:49:25.482Z,8.23
2023-02-17T04:51:51.684Z,10.35
2023-02-17T04:54:17.914Z,10.95
2023-02-17T04:56:44.128Z,9.00
2023-02-17T04:59:10.389Z,8.65
2023-02-17T05:01:36.589Z,7.95
2023-02-17T05:04:02.923Z,9.38
2023-02-17T05:06:29.136Z,9.60
2023-02-17T05:08:55.400Z,10.85
2023-02-17T05:11:21.660Z,10.30
2023-02-17T05:13:47.998Z,9.57
2023-02-17T05:16:14.364Z,9.90
2023-02-17T05:18:40.611Z,8.52
2023-02-17T05:21:06.877Z,9.75
2023-02-17T05:23:33.178Z,10.02
2023-02-17T05:25:59.437Z,9.38
2023-02-17T05:28:25.637Z,9.00
2023-02-17T05:30:51.895Z,9.65
2023-02-17T05:33:18.087Z,9.00
2023-02-17T05:35:44.290Z,7.90
2023-02-17T05:38:10.510Z,8.68
2023-02-17T05:40:36.754Z,7.95
2023-02-17T05:43:02.976Z,8.00
2023-02-17T05:45:29.227Z,7.53
2023-02-17T05:47:55.462Z,10.40
2023-02-17T05:50:21.682Z,7.75
2023-02-17T05:52:47.887Z,8.07
2023-02-17T05:55:14.110Z,8.18
2023-02-17T05:57:40.316Z,9.82
2023-02-17T06:00:06.906Z,9.52
2023-02-17T06:02:33.120Z,7.35
2023-02-17T06:04:59.381Z,6.80
2023-02-17T06:07:25.698Z,7.28
2023-02-17T06:09:51.914Z,9.38
2023-02-17T06:12:18.162Z,7.30
2023-02-17T06:14:44.366Z,6.95
2023-02-17T06:17:10.845Z,6.03
2023-02-17T06:19:37.090Z,8.60
2023-02-17T06:22:03.376Z,8.05
2023-02-17T06:24:29.777Z,7.10
2023-02-17T06:26:56.002Z,7.40
2023-02-17T06:29:22.477Z,6.43
2023-02-17T06:31:48.733Z,7.65
2023-02-17T06:34:15.075Z,8.45
2023-02-17T06:36:41.259Z,6.93
2023-02-17T06:39:07.485Z,7.72
2023-02-17T06:41:33.687Z,8.32
2023-02-17T06:43:59.886Z,9.93
2023-02-17T06:46:26.112Z,6.10
2023-02-17T06:48:52.369Z,6.72
2023-02-17T06:51:18.583Z,13.35
2023-02-17T06:53:44.774Z,10.75
2023-02-17T06:56:11.006Z,6.78
2023-02-17T06:58:37.756Z,6.63
2023-02-17T07:01:04.178Z,9.23
2023-02-17T07:03:31.541Z,6.97
2023-02-17T07:05:58.740Z,7.50
2023-02-17T07:08:25.407Z,8.02
2023-02-17T07:10:51.684Z,6.70
2023-02-17T07:13:17.893Z,7.53
2023-02-17T07:15:44.085Z,6.95
2023-02-17T07:18:10.288Z,7.68
2023-02-17T07:20:38.231Z,7.45
2023-02-17T07:23:05.407Z,7.20
2023-02-17T07:25:31.643Z,6.88
2023-02-17T07:27:59.229Z,7.10
2023-02-17T07:30:25.485Z,6.20
2023-02-17T07:32:51.739Z,7.93
2023-02-17T07:35:18.021Z,6.80
2023-02-17T07:37:44.237Z,8.73
2023-02-17T07:40:10.656Z,8.32
2023-02-17T07:42:36.860Z,9.35
2023-02-17T07:45:03.490Z,8.93
2023-02-17T07:47:29.679Z,7.28
2023-02-17T07:49:55.888Z,7.00
2023-02-17T07:52:22.367Z,8.90
2023-02-17T07:54:48.612Z,7.03
2023-02-17T07:57:14.873Z,6.90
2023-02-17T07:59:41.085Z,11.23
2023-02-17T08:02:07.355Z,6.40
2023-02-17T08:04:33.775Z,7.85
2023-02-17T08:07:00.165Z,7.05
2023-02-17T08:09:44.998Z,7.85
2023-02-17T08:12:36.918Z,5.57
2023-02-17T08:15:03.645Z,7.45
2023-02-17T08:17:29.830Z,6.10
2023-02-17T08:19:56.389Z,6.50
2023-02-17T08:22:22.607Z,6.03
2023-02-17T08:24:48.894Z,7.55
2023-02-17T08:27:15.430Z,6.53
2023-02-17T08:29:41.830Z,6.60
2023-02-17T08:32:08.217Z,4.70
2023-02-17T08:34:34.636Z,12.80
2023-02-17T08:37:01.374Z,5.95
2023-02-17T08:39:27.594Z,5.65
2023-02-17T08:41:54.030Z,5.55
2023-02-17T08:44:21.790Z,5.30
2023-02-17T08:46:49.124Z,5.55
2023-02-17T08:49:19.754Z,6.15
2023-02-17T08:51:46.183Z,5.30
2023-02-17T08:54:12.859Z,5.78
2023-02-17T08:56:39.846Z,4.15
2023-02-17T08:59:06.765Z,4.10
2023-02-17T09:01:33.564Z,5.80
2023-02-17T09:04:02.190Z,4.75
2023-02-17T09:06:32.092Z,5.47
2023-02-17T09:08:58.345Z,6.30
2023-02-17T09:11:24.567Z,5.25
2023-02-17T09:13:50.757Z,3.70
2023-02-17T09:16:18.950Z,5.20
2023-02-17T09:18:45.196Z,5.78
2023-02-17T09:21:12.493Z,4.93
2023-02-17T09:23:39.079Z,4.75
2023-02-17T09:26:07.297Z,6.25
2023-02-17T09:28:34.135Z,4.60
2023-02-17T09:31:07.948Z,4.50
2023-02-17T09:33:34.236Z,4.80
2023-02-17T09:36:00.923Z,4.05
2023-02-17T09:38:27.166Z,3.83
2023-02-17T09:40:53.378Z,3.50
2023-02-17T09:43:24.955Z,4.68
2023-02-17T09:48:20.353Z,3.75
2023-02-17T09:50:59.100Z,3.10
2023-02-17T09:53:38.808Z,5.00
2023-02-17T09:56:06.990Z,4.05
2023-02-17T09:58:33.378Z,6.35
2023-02-17T10:01:04.823Z,3.47
2023-02-17T10:03:46.406Z,3.60
2023-02-17T10:08:42.454Z,5.57
2023-02-17T10:11:14.216Z,6.53
2023-02-17T10:13:41.166Z,3.60
2023-02-17T10:16:10.334Z,5.30
2023-02-17T10:18:40.372Z,4.63
2023-02-17T10:21:19.302Z,4.22
2023-02-17T10:23:47.526Z,3.22
2023-02-17T10:26:22.382Z,3.90
2023-02-17T10:28:52.899Z,5.45
2023-02-17T10:31:19.193Z,3.42
2023-02-17T10:34:04.331Z,3.88
2023-02-17T10:36:30.690Z,3.22
2023-02-17T10:39:01.605Z,3.25
2023-02-17T10:41:32.618Z,3.03
2023-02-17T10:43:59.569Z,3.20
2023-02-17T10:46:28.766Z,2.33
2023-02-17T10:48:55.526Z,3.42
2023-02-17T10:51:24.517Z,3.50
2023-02-17T10:53:59.816Z,3.10
2023-02-17T10:56:28.570Z,2.80
2023-02-17T10:58:56.714Z,2.00
2023-02-17T11:01:23.303Z,2.17
2023-02-17T11:04:10.702Z,2.10
2023-02-17T11:06:49.314Z,3.75
2023-02-17T11:09:20.450Z,2.20
2023-02-17T11:11:54.057Z,2.17
2023-02-17T11:14:30.957Z,2.88
2023-02-17T11:16:59.293Z,2.70
2023-02-17T11:19:27.913Z,2.95
2023-02-17T11:21:55.636Z,2.97
2023-02-17T11:24:22.072Z,2.40
2023-02-17T11:26:59.084Z,1.90
2023-02-17T11:29:25.376Z,2.25
2023-02-17T11:31:59.203Z,3.63
2023-02-17T11:34:28.261Z,2.20
2023-02-17T11:37:09.440Z,2.75
2023-02-17T11:39:43.147Z,5.70
2023-02-17T11:42:16.846Z,4.32
2023-02-17T11:44:43.179Z,2.85
2023-02-17T11:47:16.160Z,9.73
2023-02-17T11:49:45.409Z,7.05
2023-02-17T11:52:30.292Z,5.15
2023-02-17T11:55:12.652Z,4.28
2023-02-17T11:57:41.073Z,7.00
2023-02-17T12:00:13.184Z,3.83
2023-02-17T12:02:47.209Z,4.20
2023-02-17T12:05:22.235Z,4.88
2023-02-17T12:07:57.418Z,3.60
2023-02-17T12:10:31.081Z,2.60
2023-02-17T12:13:01.052Z,6.03
2023-02-17T12:15:31.325Z,2.70
2023-02-17T12:18:16.260Z,9.25
2023-02-17T12:20:50.450Z,7.60
2023-02-17T12:23:25.098Z,12.05
2023-02-17T12:25:59.369Z,6.00
2023-02-17T12:28:40.912Z,6.18
2023-02-17T12:31:21.104Z,10.93
2023-02-17T12:33:50.228Z,6.95
2023-02-17T12:36:17.617Z,5.85
2023-02-17T12:38:46.720Z,12.77
2023-02-17T12:41:15.440Z,7.30
2023-02-17T12:43:49.106Z,19.05
2023-02-17T12:46:17.545Z,18.08
2023-02-17T12:48:53.917Z,8.07
2023-02-17T12:51:34.007Z,14.95
2023-02-17T12:54:10.757Z,11.88
2023-02-17T12:56:48.676Z,14.27
2023-02-17T12:59:16.787Z,14.43
2023-02-17T13:01:47.978Z,22.30
2023-02-17T13:04:17.072Z,22.40
2023-02-17T13:06:45.219Z,16.85
2023-02-17T13:09:14.397Z,14.95
2023-02-17T13:11:40.788Z,19.80
2023-02-17T13:14:22.722Z,17.08
2023-02-17T13:16:49.561Z,16.55
2023-02-17T13:19:15.879Z,18.30
2023-02-17T13:21:52.306Z,23.13
2023-02-17T13:24:32.176Z,20.02
2023-02-17T13:27:09.355Z,14.68
2023-02-17T13:29:36.504Z,18.60
2023-02-17T13:32:04.979Z,16.88
2023-02-17T13:34:36.343Z,9.13
2023-02-17T13:37:15.175Z,14.98
2023-02-17T13:39:41.489Z,19.95
2023-02-17T13:42:27.662Z,8.10
2023-02-17T13:44:53.876Z,15.50
2023-02-17T13:47:30.876Z,16.23
2023-02-17T13:49:57.385Z,18.40
2023-02-17T13:52:25.127Z,18.52
2023-02-17T13:54:52.429Z,8.35
2023-02-17T13:57:32.508Z,5.15
2023-02-17T14:00:09.626Z,7.38
2023-02-17T14:02:37.816Z,9.55
2023-02-17T14:05:17.964Z,6.05
2023-02-17T14:07:47.370Z,10.00
2023-02-17T14:10:25.133Z,10.18
2023-02-17T14:12:52.380Z,6.75
2023-02-17T14:15:19.753Z,6.65
2023-02-17T14:17:46.028Z,9.00
2023-02-17T14:20:25.970Z,9.20
2023-02-17T14:23:04.228Z,5.18
2023-02-17T14:25:31.964Z,7.18
2023-02-17T14:27:58.159Z,5.22
2023-02-17T14:30:30.647Z,4.90
2023-02-17T14:33:16.085Z,7.07
2023-02-17T14:35:53.003Z,7.97
2023-02-17T14:38:31.809Z,4.65
2023-02-17T14:40:58.661Z,6.60
2023-02-17T14:43:25.028Z,6.07
2023-02-17T14:45:51.404Z,5.18
2023-02-17T14:48:17.840Z,6.28
2023-02-17T14:50:44.689Z,5.25
2023-02-17T14:53:13.160Z,8.85
2023-02-17T14:55:50.611Z,6.53
2023-02-17T14:58:20.929Z,10.50
2023-02-17T15:00:50.445Z,7.95
2023-02-17T15:03:17.036Z,8.30
2023-02-17T15:05:43.604Z,7.93
2023-02-17T15:08:12.318Z,6.78
2023-02-17T15:10:39.866Z,7.72
2023-02-17T15:13:06.555Z,6.22
2023-02-17T15:15:32.805Z,9.55
2023-02-17T15:17:59.020Z,5.68
2023-02-17T15:20:25.240Z,5.80
2023-02-17T15:22:52.776Z,6.88
2023-02-17T15:25:22.164Z,8.15
2023-02-17T15:27:48.602Z,3.80
2023-02-17T15:30:16.236Z,4.35
2023-02-17T15:32:42.797Z,2.88
2023-02-17T15:35:19.156Z,3.25
2023-02-17T15:37:45.432Z,4.05
2023-02-17T15:40:13.178Z,3.30
2023-02-17T15:42:39.434Z,3.03
2023-02-17T15:45:05.800Z,2.65
2023-02-17T15:47:32.012Z,2.50
2023-02-17T15:49:58.363Z,2.83
2023-02-17T15:52:24.626Z,4.65
2023-02-17T15:54:50.854Z,5.68
2023-02-17T15:57:20.833Z,2.05
2023-02-17T15:59:47.124Z,2.28
2023-02-17T16:02:19.039Z,5.32
2023-02-17T16:04:46.954Z,2.22
2023-02-17T16:07:13.157Z,2.95
2023-02-17T16:09:39.427Z,3.08
2023-02-17T16:12:05.971Z,2.60
2023-02-17T16:14:36.414Z,2.78
2023-02-17T16:17:03.062Z,2.10
2023-02-17T16:19:29.341Z,2.40
2023-02-17T16:21:55.692Z,2.30
2023-02-17T16:24:21.944Z,2.85
2023-02-17T16:26:48.207Z,4.50
2023-02-17T16:29:19.550Z,5.38
2023-02-17T16:31:45.944Z,3.13
2023-02-17T16:34:13.867Z,3.33
2023-02-17T16:36:40.076Z,3.05
2023-02-17T16:39:11.044Z,2.15
2023-02-17T16:41:37.802Z,1.98
2023-02-17T16:44:07.363Z,2.85
2023-02-17T16:46:35.478Z,2.70
2023-02-17T16:49:02.295Z,3.72
2023-02-17T16:51:28.981Z,3.15
2023-02-17T16:53:55.271Z,3.33
2023-02-17T16:56:31.877Z,3.15
2023-02-17T16:58:58.065Z,3.28
2023-02-17T17:01:24.448Z,4.55
2023-02-17T17:03:50.761Z,3.25
2023-02-17T17:06:16.940Z,5.70
2023-02-17T17:08:43.178Z,4.18
2023-02-17T17:11:12.899Z,3.65
2023-02-17T17:13:39.143Z,4.63
2023-02-17T17:16:09.530Z,2.80
2023-02-17T17:18:35.865Z,4.10
2023-02-17T17:21:02.088Z,3.55
2023-02-17T17:23:28.280Z,3.92
2023-02-17T17:25:57.243Z,3.72
2023-02-17T17:28:23.543Z,3.13
2023-02-17T17:30:49.801Z,4.00
2023-02-17T17:33:16.222Z,3.45
2023-02-17T17:35:43.163Z,4.03
2023-02-17T17:38:12.741Z,4.88
2023-02-17T17:40:51.854Z,2.45
2023-02-17T17:43:21.290Z,3.40
2023-02-17T17:45:48.477Z,3.40
2023-02-17T17:48:15.241Z,3.25
2023-02-17T17:50:42.102Z,2.67
2023-02-17T17:53:08.680Z,2.75
2023-02-17T17:55:35.080Z,5.13
2023-02-17T17:58:01.358Z,2.65
2023-02-17T18:00:27.703Z,3.70
2023-02-17T18:02:53.960Z,3.15
2023-02-17T18:05:20.183Z,3.70
2023-02-17T18:07:48.035Z,4.05
2023-02-17T18:10:16.176Z,4.15
2023-02-17T18:12:44.494Z,3.33
2023-02-17T18:15:10.878Z,5.85
2023-02-17T18:17:38.650Z,4.78
2023-02-17T18:20:06.191Z,5.72
2023-02-17T18:22:32.605Z,3.92
2023-02-17T18:24:58.797Z,4.00
2023-02-17T18:27:25.049Z,5.57
2023-02-17T18:29:54.331Z,3.63
2023-02-17T18:32:21.942Z,4.10
2023-02-17T18:34:48.196Z,4.60
2023-02-17T18:37:14.836Z,4.90
2023-02-17T18:39:41.098Z,4.15
2023-02-17T18:42:07.346Z,4.20
2023-02-17T18:44:33.587Z,3.97
2023-02-17T18:46:59.814Z,4.43
2023-02-17T18:49:26.029Z,3.70
2023-02-17T18:51:52.413Z,4.05
2023-02-17T18:54:18.614Z,3.78
2023-02-17T18:56:44.814Z,3.90
2023-02-17T18:59:11.021Z,4.78
2023-02-17T19:01:41.337Z,4.35
2023-02-17T19:04:09.568Z,3.65
2023-02-17T19:06:36.048Z,5.07
2023-02-17T19:09:04.287Z,4.40
2023-02-17T19:11:30.855Z,6.05
2023-02-17T19:13:57.143Z,4.63
2023-02-17T19:16:28.112Z,4.18
2023-02-17T19:18:55.092Z,3.90
2023-02-17T19:21:21.908Z,4.88
2023-02-17T19:23:48.288Z,4.25
2023-02-17T19:26:15.080Z,4.30
2023-02-17T19:28:41.335Z,4.70
2023-02-17T19:31:08.991Z,4.85
2023-02-17T19:33:35.372Z,4.32
2023-02-17T19:36:06.391Z,5.18
2023-02-17T19:38:32.836Z,4.43
2023-02-17T19:41:01.287Z,5.20
2023-02-17T19:43:27.493Z,5.40
2023-02-17T19:45:53.693Z,5.68
2023-02-17T19:48:24.187Z,5.28
2023-02-17T19:50:51.093Z,6.35
2023-02-17T19:53:17.311Z,6.85
2023-02-17T19:55:43.578Z,5.60
2023-02-17T19:58:10.192Z,5.78
2023-02-17T20:00:36.441Z,5.82
2023-02-17T20:03:02.707Z,6.18
2023-02-17T20:05:28.922Z,5.25
2023-02-17T20:07:57.099Z,5.30
2023-02-17T20:10:23.464Z,5.72
2023-02-17T20:12:49.674Z,6.03
2023-02-17T20:15:15.916Z,7.22
2023-02-17T20:17:42.165Z,6.03
2023-02-17T20:20:09.629Z,7.35
2023-02-17T20:22:35.859Z,6.55
2023-02-17T20:25:02.139Z,6.40
2023-02-17T20:27:28.368Z,8.80
2023-02-17T20:29:54.583Z,6.82
2023-02-17T20:32:20.874Z,6.43
2023-02-17T20:34:47.161Z,6.95
2023-02-17T20:37:13.397Z,9.15
2023-02-17T20:39:41.000Z,5.95
2023-02-17T20:42:07.289Z,7.22
2023-02-17T20:44:33.521Z,7.15
2023-02-17T20:47:00.214Z,7.82
2023-02-17T20:49:26.907Z,8.50
2023-02-17T20:51:53.228Z,8.38
2023-02-17T20:54:19.482Z,8.65
2023-02-17T20:56:47.372Z,8.82
2023-02-17T20:59:14.135Z,9.80
2023-02-17T21:01:40.968Z,10.90
2023-02-17T21:04:07.764Z,12.43
2023-02-17T21:06:35.610Z,11.13
2023-02-17T21:09:04.265Z,8.55
2023-02-17T21:11:30.516Z,8.07
2023-02-17T21:13:56.766Z,9.38
2023-02-17T21:16:24.789Z,9.15
2023-02-17T21:18:51.802Z,9.05
2023-02-17T21:21:18.275Z,8.68
2023-02-17T21:23:44.592Z,8.95
2023-02-17T21:26:11.666Z,9.68
2023-02-17T21:28:38.207Z,10.23
2023-02-17T21:31:04.719Z,8.55
2023-02-17T21:33:31.325Z,7.97
2023-02-17T21:35:57.519Z,9.15
2023-02-17T21:38:24.055Z,9.45
2023-02-17T21:40:50.445Z,8.07
2023-02-17T21:43:36.564Z,8.98
2023-02-17T21:46:07.198Z,8.88
2023-02-17T21:48:33.658Z,6.68
2023-02-17T21:51:03.485Z,7.75
2023-02-17T21:53:29.713Z,9.20
2023-02-17T21:55:55.894Z,7.47
2023-02-17T21:58:22.081Z,7.03
2023-02-17T22:00:48.771Z,7.22
2023-02-17T22:03:14.987Z,6.85
2023-02-17T22:05:41.238Z,7.85
2023-02-17T22:08:07.436Z,10.68
2023-02-17T22:10:40.116Z,9.07
2023-02-17T22:13:06.713Z,6.60
2023-02-17T22:15:33.422Z,8.02
2023-02-17T22:17:59.658Z,7.93
2023-02-17T22:20:26.077Z,9.45
2023-02-17T22:22:52.557Z,9.32
2023-02-17T22:25:18.877Z,11.63
2023-02-17T22:27:45.100Z,9.20
2023-02-17T22:30:11.749Z,10.88
2023-02-17T22:32:38.021Z,10.32
2023-02-17T22:35:05.183Z,11.63
2023-02-17T22:37:31.415Z,12.20
2023-02-17T22:39:57.698Z,10.20
2023-02-17T22:42:24.445Z,11.52
2023-02-17T22:44:50.791Z,12.43
2023-02-17T22:47:17.140Z,9.15
2023-02-17T22:49:43.377Z,10.18
2023-02-17T22:52:09.678Z,11.02
2023-02-17T22:54:36.117Z,10.75
2023-02-17T22:57:02.307Z,10.05
2023-02-17T22:59:28.489Z,8.35
2023-02-17T23:01:57.605Z,9.43
2023-02-17T23:04:23.848Z,9.18
2023-02-17T23:06:50.298Z,10.75
2023-02-17T23:09:17.397Z,9.45
2023-02-17T23:11:49.756Z,12.43
2023-02-17T23:14:32.412Z,9.63
2023-02-17T23:16:59.993Z,10.65
2023-02-17T23:19:26.291Z,10.40
2023-02-17T23:21:55.040Z,11.75
2023-02-17T23:24:22.283Z,9.32
2023-02-17T23:26:48.893Z,9.05
2023-02-17T23:29:16.273Z,9.85
2023-02-17T23:31:42.698Z,9.55
2023-02-17T23:34:10.532Z,9.43
2023-02-17T23:36:38.728Z,11.20
2023-02-17T23:39:05.131Z,10.40
2023-02-17T23:41:31.345Z,10.85
2023-02-17T23:43:57.758Z,10.77
2023-02-17T23:46:23.993Z,11.82
2023-02-17T23:48:50.468Z,11.20
2023-02-17T23:51:17.397Z,10.40
2023-02-17T23:53:43.865Z,10.73
2023-02-17T23:56:14.784Z,10.20
2023-02-17T23:58:41.171Z,10.25
